sensor_id;sensor_type;location;lat;lon;timestamp;P1;durP1;ratioP1;P2;durP2;ratioP2
40707;SDS011;26392;42.696;23.350;2022-07-29T00:00:59;12.18;;;7.93;;
40707;SDS011;26392;42.696;23.350;2022-07-29T00:03:25;13.32;;;8.20;;
40707;SDS011;26392;42.696;23.350;2022-07-29T00:05:51;11.30;;;7.40;;
40707;SDS011;26392;42.696;23.350;2022-07-29T00:08:18;9.98;;;7.43;;
40707;SDS011;26392;42.696;23.350;2022-07-29T00:10:44;10.60;;;7.45;;
40707;SDS011;26392;42.696;23.350;2022-07-29T00:13:09;12.93;;;7.72;;
40707;SDS011;26392;42.696;23.350;2022-07-29T00:15:35;12.55;;;7.55;;
40707;SDS011;26392;42.696;23.350;2022-07-29T00:18:00;10.95;;;7.32;;
40707;SDS011;26392;42.696;23.350;2022-07-29T00:20:26;12.13;;;7.38;;
40707;SDS011;26392;42.696;23.350;2022-07-29T00:22:52;12.00;;;7.57;;
40707;SDS011;26392;42.696;23.350;2022-07-29T00:25:18;11.32;;;7.78;;
40707;SDS011;26392;42.696;23.350;2022-07-29T00:27:43;11.50;;;7.15;;
40707;SDS011;26392;42.696;23.350;2022-07-29T00:30:10;12.00;;;7.78;;
40707;SDS011;26392;42.696;23.350;2022-07-29T00:32:36;13.95;;;7.72;;
40707;SDS011;26392;42.696;23.350;2022-07-29T00:35:01;13.05;;;8.27;;
40707;SDS011;26392;42.696;23.350;2022-07-29T00:37:45;13.10;;;8.63;;
40707;SDS011;26392;42.696;23.350;2022-07-29T00:40:11;11.85;;;7.97;;
40707;SDS011;26392;42.696;23.350;2022-07-29T00:42:43;10.93;;;7.78;;
40707;SDS011;26392;42.696;23.350;2022-07-29T00:45:13;14.93;;;8.63;;
40707;SDS011;26392;42.696;23.350;2022-07-29T00:47:39;13.23;;;8.38;;
40707;SDS011;26392;42.696;23.350;2022-07-29T00:50:05;14.65;;;8.45;;
40707;SDS011;26392;42.696;23.350;2022-07-29T00:52:32;12.75;;;8.50;;
40707;SDS011;26392;42.696;23.350;2022-07-29T00:55:00;14.68;;;9.57;;
40707;SDS011;26392;42.696;23.350;2022-07-29T00:57:25;19.75;;;10.18;;
40707;SDS011;26392;42.696;23.350;2022-07-29T00:59:51;16.75;;;10.18;;
40707;SDS011;26392;42.696;23.350;2022-07-29T01:02:16;21.90;;;11.07;;
40707;SDS011;26392;42.696;23.350;2022-07-29T01:04:42;18.10;;;10.70;;
40707;SDS011;26392;42.696;23.350;2022-07-29T01:07:07;17.92;;;10.90;;
40707;SDS011;26392;42.696;23.350;2022-07-29T01:09:33;18.58;;;11.70;;
40707;SDS011;26392;42.696;23.350;2022-07-29T01:11:59;16.70;;;10.32;;
40707;SDS011;26392;42.696;23.350;2022-07-29T01:14:26;18.55;;;11.45;;
40707;SDS011;26392;42.696;23.350;2022-07-29T01:17:00;19.13;;;11.15;;
40707;SDS011;26392;42.696;23.350;2022-07-29T01:30:28;19.08;;;11.35;;
40707;SDS011;26392;42.696;23.350;2022-07-29T01:32:58;26.30;;;12.55;;
40707;SDS011;26392;42.696;23.350;2022-07-29T01:35:28;19.63;;;11.70;;
40707;SDS011;26392;42.696;23.350;2022-07-29T01:40:43;18.98;;;11.30;;
40707;SDS011;26392;42.696;23.350;2022-07-29T01:43:14;19.33;;;12.32;;
40707;SDS011;26392;42.696;23.350;2022-07-29T01:45:45;20.58;;;13.45;;
40707;SDS011;26392;42.696;23.350;2022-07-29T01:48:19;18.95;;;11.57;;
40707;SDS011;26392;42.696;23.350;2022-07-29T01:50:49;19.27;;;11.90;;
40707;SDS011;26392;42.696;23.350;2022-07-29T01:54:01;24.48;;;12.30;;
40707;SDS011;26392;42.696;23.350;2022-07-29T01:56:11;22.77;;;11.73;;
40707;SDS011;26392;42.696;23.350;2022-07-29T01:58:38;20.95;;;12.68;;
40707;SDS011;26392;42.696;23.350;2022-07-29T02:01:06;23.17;;;12.52;;
40707;SDS011;26392;42.696;23.350;2022-07-29T02:03:34;22.15;;;12.90;;
40707;SDS011;26392;42.696;23.350;2022-07-29T02:06:01;20.50;;;12.48;;
40707;SDS011;26392;42.696;23.350;2022-07-29T02:08:29;23.20;;;12.75;;
40707;SDS011;26392;42.696;23.350;2022-07-29T02:10:57;22.35;;;12.00;;
40707;SDS011;26392;42.696;23.350;2022-07-29T02:13:25;21.50;;;12.23;;
40707;SDS011;26392;42.696;23.350;2022-07-29T02:15:54;25.30;;;11.45;;
40707;SDS011;26392;42.696;23.350;2022-07-29T02:18:22;17.67;;;11.15;;
40707;SDS011;26392;42.696;23.350;2022-07-29T02:20:50;19.38;;;11.13;;
40707;SDS011;26392;42.696;23.350;2022-07-29T02:23:20;20.50;;;11.60;;
40707;SDS011;26392;42.696;23.350;2022-07-29T02:25:48;19.90;;;12.10;;
40707;SDS011;26392;42.696;23.350;2022-07-29T02:28:16;21.52;;;12.20;;
40707;SDS011;26392;42.696;23.350;2022-07-29T02:30:43;22.25;;;12.27;;
40707;SDS011;26392;42.696;23.350;2022-07-29T02:33:12;20.58;;;11.88;;
40707;SDS011;26392;42.696;23.350;2022-07-29T02:35:39;20.85;;;12.02;;
40707;SDS011;26392;42.696;23.350;2022-07-29T02:38:08;19.85;;;13.05;;
40707;SDS011;26392;42.696;23.350;2022-07-29T02:40:56;22.13;;;12.07;;
40707;SDS011;26392;42.696;23.350;2022-07-29T02:43:23;23.05;;;12.23;;
40707;SDS011;26392;42.696;23.350;2022-07-29T02:45:51;24.10;;;13.73;;
40707;SDS011;26392;42.696;23.350;2022-07-29T02:48:21;27.67;;;14.35;;
40707;SDS011;26392;42.696;23.350;2022-07-29T02:50:54;24.50;;;12.23;;
40707;SDS011;26392;42.696;23.350;2022-07-29T02:53:30;20.08;;;12.98;;
40707;SDS011;26392;42.696;23.350;2022-07-29T02:56:01;22.88;;;12.93;;
40707;SDS011;26392;42.696;23.350;2022-07-29T02:58:32;23.45;;;13.10;;
40707;SDS011;26392;42.696;23.350;2022-07-29T03:01:03;21.33;;;12.40;;
40707;SDS011;26392;42.696;23.350;2022-07-29T03:03:37;27.45;;;12.98;;
40707;SDS011;26392;42.696;23.350;2022-07-29T03:06:03;19.45;;;12.23;;
40707;SDS011;26392;42.696;23.350;2022-07-29T03:08:30;25.15;;;12.52;;
40707;SDS011;26392;42.696;23.350;2022-07-29T03:10:57;23.95;;;12.30;;
40707;SDS011;26392;42.696;23.350;2022-07-29T03:13:23;19.67;;;10.15;;
40707;SDS011;26392;42.696;23.350;2022-07-29T03:15:50;22.00;;;11.55;;
40707;SDS011;26392;42.696;23.350;2022-07-29T03:18:17;16.80;;;10.55;;
40707;SDS011;26392;42.696;23.350;2022-07-29T03:20:43;20.98;;;10.98;;
40707;SDS011;26392;42.696;23.350;2022-07-29T03:23:08;19.05;;;11.18;;
40707;SDS011;26392;42.696;23.350;2022-07-29T03:25:34;20.33;;;11.57;;
40707;SDS011;26392;42.696;23.350;2022-07-29T03:28:00;18.27;;;11.10;;
40707;SDS011;26392;42.696;23.350;2022-07-29T03:30:25;18.85;;;10.93;;
40707;SDS011;26392;42.696;23.350;2022-07-29T03:32:51;19.58;;;10.40;;
40707;SDS011;26392;42.696;23.350;2022-07-29T03:35:16;15.98;;;10.45;;
40707;SDS011;26392;42.696;23.350;2022-07-29T03:37:42;17.83;;;10.23;;
40707;SDS011;26392;42.696;23.350;2022-07-29T03:40:10;15.88;;;10.57;;
40707;SDS011;26392;42.696;23.350;2022-07-29T03:42:39;16.75;;;11.40;;
40707;SDS011;26392;42.696;23.350;2022-07-29T03:45:07;19.02;;;11.30;;
40707;SDS011;26392;42.696;23.350;2022-07-29T03:47:36;17.05;;;10.38;;
40707;SDS011;26392;42.696;23.350;2022-07-29T03:50:06;15.75;;;10.32;;
40707;SDS011;26392;42.696;23.350;2022-07-29T03:52:33;21.42;;;10.55;;
40707;SDS011;26392;42.696;23.350;2022-07-29T03:55:00;21.00;;;10.05;;
40707;SDS011;26392;42.696;23.350;2022-07-29T03:57:27;17.17;;;9.80;;
40707;SDS011;26392;42.696;23.350;2022-07-29T03:59:53;16.80;;;10.25;;
40707;SDS011;26392;42.696;23.350;2022-07-29T04:02:19;14.20;;;9.68;;
40707;SDS011;26392;42.696;23.350;2022-07-29T04:04:45;13.55;;;8.70;;
40707;SDS011;26392;42.696;23.350;2022-07-29T04:07:12;14.95;;;8.25;;
40707;SDS011;26392;42.696;23.350;2022-07-29T04:09:38;14.50;;;8.80;;
40707;SDS011;26392;42.696;23.350;2022-07-29T04:12:03;17.00;;;8.98;;
40707;SDS011;26392;42.696;23.350;2022-07-29T04:14:30;13.32;;;8.63;;
40707;SDS011;26392;42.696;23.350;2022-07-29T04:16:56;14.80;;;8.77;;
40707;SDS011;26392;42.696;23.350;2022-07-29T04:19:22;15.57;;;8.30;;
40707;SDS011;26392;42.696;23.350;2022-07-29T04:21:47;11.10;;;7.97;;
40707;SDS011;26392;42.696;23.350;2022-07-29T04:24:13;11.30;;;7.25;;
40707;SDS011;26392;42.696;23.350;2022-07-29T04:26:38;10.35;;;7.03;;
40707;SDS011;26392;42.696;23.350;2022-07-29T04:29:04;9.48;;;6.38;;
40707;SDS011;26392;42.696;23.350;2022-07-29T04:31:29;12.50;;;6.75;;
40707;SDS011;26392;42.696;23.350;2022-07-29T04:33:55;12.38;;;7.28;;
40707;SDS011;26392;42.696;23.350;2022-07-29T04:36:20;8.05;;;6.13;;
40707;SDS011;26392;42.696;23.350;2022-07-29T04:38:45;11.40;;;6.63;;
40707;SDS011;26392;42.696;23.350;2022-07-29T04:41:11;7.80;;;5.97;;
40707;SDS011;26392;42.696;23.350;2022-07-29T04:43:36;10.52;;;6.13;;
40707;SDS011;26392;42.696;23.350;2022-07-29T04:46:02;16.05;;;5.75;;
40707;SDS011;26392;42.696;23.350;2022-07-29T04:48:28;10.10;;;5.95;;
40707;SDS011;26392;42.696;23.350;2022-07-29T04:50:54;8.10;;;5.85;;
40707;SDS011;26392;42.696;23.350;2022-07-29T04:53:20;10.20;;;5.47;;
40707;SDS011;26392;42.696;23.350;2022-07-29T04:55:45;7.63;;;5.35;;
40707;SDS011;26392;42.696;23.350;2022-07-29T04:58:11;8.60;;;5.53;;
40707;SDS011;26392;42.696;23.350;2022-07-29T05:00:36;9.98;;;5.50;;
40707;SDS011;26392;42.696;23.350;2022-07-29T05:03:03;5.75;;;4.90;;
40707;SDS011;26392;42.696;23.350;2022-07-29T05:05:28;6.57;;;4.93;;
40707;SDS011;26392;42.696;23.350;2022-07-29T05:07:54;6.22;;;4.80;;
40707;SDS011;26392;42.696;23.350;2022-07-29T05:10:20;12.27;;;5.38;;
40707;SDS011;26392;42.696;23.350;2022-07-29T05:12:45;7.18;;;4.90;;
40707;SDS011;26392;42.696;23.350;2022-07-29T05:15:11;8.13;;;5.00;;
40707;SDS011;26392;42.696;23.350;2022-07-29T05:17:36;10.23;;;5.78;;
40707;SDS011;26392;42.696;23.350;2022-07-29T05:20:02;9.20;;;5.57;;
40707;SDS011;26392;42.696;23.350;2022-07-29T05:22:28;9.80;;;5.78;;
40707;SDS011;26392;42.696;23.350;2022-07-29T05:24:54;8.13;;;5.95;;
40707;SDS011;26392;42.696;23.350;2022-07-29T05:27:19;10.52;;;6.63;;
40707;SDS011;26392;42.696;23.350;2022-07-29T05:29:44;6.85;;;5.63;;
40707;SDS011;26392;42.696;23.350;2022-07-29T05:32:10;10.27;;;5.85;;
40707;SDS011;26392;42.696;23.350;2022-07-29T05:34:35;7.18;;;5.43;;
40707;SDS011;26392;42.696;23.350;2022-07-29T05:37:01;14.05;;;6.60;;
40707;SDS011;26392;42.696;23.350;2022-07-29T05:39:26;7.97;;;5.55;;
40707;SDS011;26392;42.696;23.350;2022-07-29T05:41:52;8.10;;;5.28;;
40707;SDS011;26392;42.696;23.350;2022-07-29T05:44:17;8.25;;;5.70;;
40707;SDS011;26392;42.696;23.350;2022-07-29T05:46:43;7.45;;;5.70;;
40707;SDS011;26392;42.696;23.350;2022-07-29T05:49:08;10.65;;;5.60;;
40707;SDS011;26392;42.696;23.350;2022-07-29T05:51:34;5.88;;;4.70;;
40707;SDS011;26392;42.696;23.350;2022-07-29T05:54:00;5.38;;;4.47;;
40707;SDS011;26392;42.696;23.350;2022-07-29T05:56:25;7.40;;;4.85;;
40707;SDS011;26392;42.696;23.350;2022-07-29T05:58:51;10.18;;;4.57;;
40707;SDS011;26392;42.696;23.350;2022-07-29T06:01:17;9.57;;;4.53;;
40707;SDS011;26392;42.696;23.350;2022-07-29T06:03:42;8.07;;;4.88;;
40707;SDS011;26392;42.696;23.350;2022-07-29T06:06:08;8.68;;;4.93;;
40707;SDS011;26392;42.696;23.350;2022-07-29T06:08:34;8.05;;;5.53;;
40707;SDS011;26392;42.696;23.350;2022-07-29T06:11:01;9.57;;;5.57;;
40707;SDS011;26392;42.696;23.350;2022-07-29T06:13:27;10.38;;;6.40;;
40707;SDS011;26392;42.696;23.350;2022-07-29T06:15:52;11.63;;;4.97;;
40707;SDS011;26392;42.696;23.350;2022-07-29T06:18:18;9.60;;;5.50;;
40707;SDS011;26392;42.696;23.350;2022-07-29T06:20:45;9.15;;;5.55;;
40707;SDS011;26392;42.696;23.350;2022-07-29T06:23:11;7.90;;;4.90;;
40707;SDS011;26392;42.696;23.350;2022-07-29T06:25:36;10.88;;;5.15;;
40707;SDS011;26392;42.696;23.350;2022-07-29T06:28:03;9.68;;;4.47;;
40707;SDS011;26392;42.696;23.350;2022-07-29T06:30:29;5.78;;;4.93;;
40707;SDS011;26392;42.696;23.350;2022-07-29T06:32:54;6.18;;;4.50;;
40707;SDS011;26392;42.696;23.350;2022-07-29T06:35:20;6.38;;;4.65;;
40707;SDS011;26392;42.696;23.350;2022-07-29T06:37:46;4.82;;;4.32;;
40707;SDS011;26392;42.696;23.350;2022-07-29T06:40:12;8.15;;;5.32;;
40707;SDS011;26392;42.696;23.350;2022-07-29T06:42:55;6.40;;;5.25;;
40707;SDS011;26392;42.696;23.350;2022-07-29T06:45:21;6.60;;;4.15;;
40707;SDS011;26392;42.696;23.350;2022-07-29T06:47:47;7.15;;;5.10;;
40707;SDS011;26392;42.696;23.350;2022-07-29T06:50:14;11.88;;;6.10;;
40707;SDS011;26392;42.696;23.350;2022-07-29T06:52:40;6.25;;;4.38;;
40707;SDS011;26392;42.696;23.350;2022-07-29T06:55:06;9.60;;;4.70;;
40707;SDS011;26392;42.696;23.350;2022-07-29T06:57:32;9.10;;;4.75;;
40707;SDS011;26392;42.696;23.350;2022-07-29T06:59:57;5.15;;;4.07;;
40707;SDS011;26392;42.696;23.350;2022-07-29T07:02:23;4.68;;;3.90;;
40707;SDS011;26392;42.696;23.350;2022-07-29T07:04:48;7.47;;;4.10;;
40707;SDS011;26392;42.696;23.350;2022-07-29T07:07:14;8.88;;;4.53;;
40707;SDS011;26392;42.696;23.350;2022-07-29T07:09:40;7.28;;;3.92;;
40707;SDS011;26392;42.696;23.350;2022-07-29T07:12:05;5.13;;;3.60;;
40707;SDS011;26392;42.696;23.350;2022-07-29T07:14:31;5.65;;;3.60;;
40707;SDS011;26392;42.696;23.350;2022-07-29T07:16:57;6.90;;;3.78;;
40707;SDS011;26392;42.696;23.350;2022-07-29T07:19:25;5.57;;;3.55;;
40707;SDS011;26392;42.696;23.350;2022-07-29T07:21:50;7.85;;;3.85;;
40707;SDS011;26392;42.696;23.350;2022-07-29T07:24:18;4.43;;;3.40;;
40707;SDS011;26392;42.696;23.350;2022-07-29T07:26:44;5.25;;;3.25;;
40707;SDS011;26392;42.696;23.350;2022-07-29T07:29:09;4.18;;;3.58;;
40707;SDS011;26392;42.696;23.350;2022-07-29T07:31:35;6.18;;;3.70;;
40707;SDS011;26392;42.696;23.350;2022-07-29T07:34:01;5.43;;;3.50;;
40707;SDS011;26392;42.696;23.350;2022-07-29T07:36:27;6.10;;;4.35;;
40707;SDS011;26392;42.696;23.350;2022-07-29T07:38:52;6.00;;;3.88;;
40707;SDS011;26392;42.696;23.350;2022-07-29T07:41:17;5.75;;;4.15;;
40707;SDS011;26392;42.696;23.350;2022-07-29T07:43:43;5.38;;;3.75;;
40707;SDS011;26392;42.696;23.350;2022-07-29T07:46:08;8.40;;;4.43;;
40707;SDS011;26392;42.696;23.350;2022-07-29T07:48:34;7.30;;;3.90;;
40707;SDS011;26392;42.696;23.350;2022-07-29T07:50:59;5.63;;;3.42;;
40707;SDS011;26392;42.696;23.350;2022-07-29T07:53:26;3.95;;;3.33;;
40707;SDS011;26392;42.696;23.350;2022-07-29T07:55:52;6.30;;;3.72;;
40707;SDS011;26392;42.696;23.350;2022-07-29T07:58:18;4.55;;;3.40;;
40707;SDS011;26392;42.696;23.350;2022-07-29T08:00:43;4.05;;;3.35;;
40707;SDS011;26392;42.696;23.350;2022-07-29T08:03:08;6.35;;;4.15;;
40707;SDS011;26392;42.696;23.350;2022-07-29T08:05:37;7.97;;;4.03;;
40707;SDS011;26392;42.696;23.350;2022-07-29T08:08:03;5.88;;;4.00;;
40707;SDS011;26392;42.696;23.350;2022-07-29T08:10:28;6.78;;;4.03;;
40707;SDS011;26392;42.696;23.350;2022-07-29T08:13:12;5.55;;;3.70;;
40707;SDS011;26392;42.696;23.350;2022-07-29T08:15:38;7.55;;;3.63;;
40707;SDS011;26392;42.696;23.350;2022-07-29T08:18:04;4.05;;;3.65;;
40707;SDS011;26392;42.696;23.350;2022-07-29T08:20:30;3.67;;;2.97;;
40707;SDS011;26392;42.696;23.350;2022-07-29T08:22:58;5.20;;;3.47;;
40707;SDS011;26392;42.696;23.350;2022-07-29T08:25:24;4.13;;;3.25;;
40707;SDS011;26392;42.696;23.350;2022-07-29T08:27:49;6.45;;;3.10;;
40707;SDS011;26392;42.696;23.350;2022-07-29T08:30:14;3.70;;;3.38;;
40707;SDS011;26392;42.696;23.350;2022-07-29T08:32:40;3.35;;;3.05;;
40707;SDS011;26392;42.696;23.350;2022-07-29T08:35:06;4.00;;;3.30;;
40707;SDS011;26392;42.696;23.350;2022-07-29T08:37:31;6.88;;;4.15;;
40707;SDS011;26392;42.696;23.350;2022-07-29T08:39:57;3.30;;;3.00;;
40707;SDS011;26392;42.696;23.350;2022-07-29T08:42:22;3.80;;;2.97;;
40707;SDS011;26392;42.696;23.350;2022-07-29T08:44:48;3.03;;;2.72;;
40707;SDS011;26392;42.696;23.350;2022-07-29T08:47:13;3.50;;;3.20;;
40707;SDS011;26392;42.696;23.350;2022-07-29T08:49:39;4.30;;;3.22;;
40707;SDS011;26392;42.696;23.350;2022-07-29T08:52:05;4.28;;;3.00;;
40707;SDS011;26392;42.696;23.350;2022-07-29T08:54:33;3.55;;;3.00;;
40707;SDS011;26392;42.696;23.350;2022-07-29T08:56:59;4.43;;;3.20;;
40707;SDS011;26392;42.696;23.350;2022-07-29T08:59:26;5.40;;;3.15;;
40707;SDS011;26392;42.696;23.350;2022-07-29T09:01:53;3.85;;;3.20;;
40707;SDS011;26392;42.696;23.350;2022-07-29T09:04:19;4.32;;;3.22;;
40707;SDS011;26392;42.696;23.350;2022-07-29T09:06:46;5.75;;;2.95;;
40707;SDS011;26392;42.696;23.350;2022-07-29T09:09:14;5.05;;;2.55;;
40707;SDS011;26392;42.696;23.350;2022-07-29T09:11:40;3.40;;;3.10;;
40707;SDS011;26392;42.696;23.350;2022-07-29T09:14:06;3.33;;;2.97;;
40707;SDS011;26392;42.696;23.350;2022-07-29T09:16:45;4.72;;;3.22;;
40707;SDS011;26392;42.696;23.350;2022-07-29T09:21:56;5.20;;;2.80;;
40707;SDS011;26392;42.696;23.350;2022-07-29T09:29:35;4.70;;;2.88;;
40707;SDS011;26392;42.696;23.350;2022-07-29T09:32:02;5.57;;;3.15;;
40707;SDS011;26392;42.696;23.350;2022-07-29T09:34:33;7.03;;;3.20;;
40707;SDS011;26392;42.696;23.350;2022-07-29T09:36:59;6.32;;;3.08;;
40707;SDS011;26392;42.696;23.350;2022-07-29T09:39:31;4.53;;;3.78;;
40707;SDS011;26392;42.696;23.350;2022-07-29T09:41:59;4.75;;;3.30;;
40707;SDS011;26392;42.696;23.350;2022-07-29T09:44:26;4.32;;;3.15;;
40707;SDS011;26392;42.696;23.350;2022-07-29T09:47:05;5.22;;;3.30;;
40707;SDS011;26392;42.696;23.350;2022-07-29T09:49:34;3.72;;;3.30;;
40707;SDS011;26392;42.696;23.350;2022-07-29T09:52:04;5.13;;;2.83;;
40707;SDS011;26392;42.696;23.350;2022-07-29T09:54:33;6.90;;;3.38;;
40707;SDS011;26392;42.696;23.350;2022-07-29T09:57:03;5.57;;;3.47;;
40707;SDS011;26392;42.696;23.350;2022-07-29T09:59:56;7.35;;;2.92;;
40707;SDS011;26392;42.696;23.350;2022-07-29T10:02:22;6.32;;;2.92;;
40707;SDS011;26392;42.696;23.350;2022-07-29T10:04:52;5.72;;;3.00;;
40707;SDS011;26392;42.696;23.350;2022-07-29T10:07:17;3.40;;;2.45;;
40707;SDS011;26392;42.696;23.350;2022-07-29T10:09:51;3.95;;;2.70;;
40707;SDS011;26392;42.696;23.350;2022-07-29T10:12:19;3.65;;;2.85;;
40707;SDS011;26392;42.696;23.350;2022-07-29T10:14:45;3.22;;;2.80;;
40707;SDS011;26392;42.696;23.350;2022-07-29T10:17:11;3.58;;;2.78;;
40707;SDS011;26392;42.696;23.350;2022-07-29T10:19:37;3.85;;;2.97;;
40707;SDS011;26392;42.696;23.350;2022-07-29T10:22:04;4.45;;;2.75;;
40707;SDS011;26392;42.696;23.350;2022-07-29T10:24:34;4.57;;;3.30;;
40707;SDS011;26392;42.696;23.350;2022-07-29T10:27:02;4.22;;;3.05;;
40707;SDS011;26392;42.696;23.350;2022-07-29T10:29:29;3.60;;;2.78;;
40707;SDS011;26392;42.696;23.350;2022-07-29T10:37:17;4.88;;;3.28;;
40707;SDS011;26392;42.696;23.350;2022-07-29T10:40:11;3.55;;;2.95;;
40707;SDS011;26392;42.696;23.350;2022-07-29T10:43:03;3.63;;;2.95;;
40707;SDS011;26392;42.696;23.350;2022-07-29T10:45:42;3.58;;;2.83;;
40707;SDS011;26392;42.696;23.350;2022-07-29T10:48:09;5.78;;;3.20;;
40707;SDS011;26392;42.696;23.350;2022-07-29T10:50:53;3.47;;;2.80;;
40707;SDS011;26392;42.696;23.350;2022-07-29T10:53:21;3.85;;;2.95;;
40707;SDS011;26392;42.696;23.350;2022-07-29T10:55:47;7.20;;;3.10;;
40707;SDS011;26392;42.696;23.350;2022-07-29T10:58:21;3.10;;;2.70;;
40707;SDS011;26392;42.696;23.350;2022-07-29T11:00:51;3.50;;;3.20;;
40707;SDS011;26392;42.696;23.350;2022-07-29T11:03:42;3.72;;;3.30;;
40707;SDS011;26392;42.696;23.350;2022-07-29T11:06:07;5.95;;;3.42;;
40707;SDS011;26392;42.696;23.350;2022-07-29T11:08:33;3.70;;;2.88;;
40707;SDS011;26392;42.696;23.350;2022-07-29T11:13:49;7.57;;;3.45;;
40707;SDS011;26392;42.696;23.350;2022-07-29T11:16:16;5.38;;;3.00;;
40707;SDS011;26392;42.696;23.350;2022-07-29T11:21:41;5.75;;;3.50;;
40707;SDS011;26392;42.696;23.350;2022-07-29T11:24:11;4.13;;;3.63;;
40707;SDS011;26392;42.696;23.350;2022-07-29T11:26:38;4.32;;;3.42;;
40707;SDS011;26392;42.696;23.350;2022-07-29T11:29:17;5.38;;;3.35;;
40707;SDS011;26392;42.696;23.350;2022-07-29T11:31:48;3.92;;;3.17;;
40707;SDS011;26392;42.696;23.350;2022-07-29T11:39:32;3.75;;;2.88;;
40707;SDS011;26392;42.696;23.350;2022-07-29T11:42:42;8.13;;;3.53;;
40707;SDS011;26392;42.696;23.350;2022-07-29T11:44:57;5.38;;;3.78;;
40707;SDS011;26392;42.696;23.350;2022-07-29T11:47:58;5.10;;;3.42;;
40707;SDS011;26392;42.696;23.350;2022-07-29T11:50:28;5.82;;;3.60;;
40707;SDS011;26392;42.696;23.350;2022-07-29T11:52:59;5.60;;;3.70;;
40707;SDS011;26392;42.696;23.350;2022-07-29T11:55:25;6.57;;;3.83;;
40707;SDS011;26392;42.696;23.350;2022-07-29T12:03:11;4.30;;;3.72;;
40707;SDS011;26392;42.696;23.350;2022-07-29T12:05:47;4.20;;;3.45;;
40707;SDS011;26392;42.696;23.350;2022-07-29T12:08:19;3.97;;;3.63;;
40707;SDS011;26392;42.696;23.350;2022-07-29T12:10:47;7.17;;;3.77;;
40707;SDS011;26392;42.696;23.350;2022-07-29T12:13:15;5.88;;;4.05;;
40707;SDS011;26392;42.696;23.350;2022-07-29T12:15:42;5.45;;;3.53;;
40707;SDS011;26392;42.696;23.350;2022-07-29T12:18:19;5.80;;;3.67;;
40707;SDS011;26392;42.696;23.350;2022-07-29T12:20:45;5.30;;;3.75;;
40707;SDS011;26392;42.696;23.350;2022-07-29T12:23:12;6.28;;;3.90;;
40707;SDS011;26392;42.696;23.350;2022-07-29T12:25:38;7.47;;;3.90;;
40707;SDS011;26392;42.696;23.350;2022-07-29T12:28:06;5.07;;;3.67;;
40707;SDS011;26392;42.696;23.350;2022-07-29T12:30:40;4.28;;;3.88;;
40707;SDS011;26392;42.696;23.350;2022-07-29T12:35:56;5.25;;;4.10;;
40707;SDS011;26392;42.696;23.350;2022-07-29T12:38:24;8.30;;;3.80;;
40707;SDS011;26392;42.696;23.350;2022-07-29T12:40:51;11.27;;;3.78;;
40707;SDS011;26392;42.696;23.350;2022-07-29T12:43:19;7.65;;;4.88;;
40707;SDS011;26392;42.696;23.350;2022-07-29T12:45:49;5.35;;;4.30;;
40707;SDS011;26392;42.696;23.350;2022-07-29T12:48:16;9.48;;;4.30;;
40707;SDS011;26392;42.696;23.350;2022-07-29T12:50:53;5.47;;;4.72;;
40707;SDS011;26392;42.696;23.350;2022-07-29T12:53:22;6.30;;;4.03;;
40707;SDS011;26392;42.696;23.350;2022-07-29T12:55:49;7.30;;;4.30;;
40707;SDS011;26392;42.696;23.350;2022-07-29T12:58:28;4.75;;;4.15;;
40707;SDS011;26392;42.696;23.350;2022-07-29T13:01:04;7.97;;;4.10;;
40707;SDS011;26392;42.696;23.350;2022-07-29T13:03:45;6.22;;;4.55;;
40707;SDS011;26392;42.696;23.350;2022-07-29T13:06:27;5.18;;;4.13;;
40707;SDS011;26392;42.696;23.350;2022-07-29T13:09:14;6.25;;;4.05;;
40707;SDS011;26392;42.696;23.350;2022-07-29T13:11:47;7.25;;;4.53;;
40707;SDS011;26392;42.696;23.350;2022-07-29T13:19:32;5.40;;;3.97;;
40707;SDS011;26392;42.696;23.350;2022-07-29T13:21:59;7.97;;;5.00;;
40707;SDS011;26392;42.696;23.350;2022-07-29T13:24:25;5.55;;;4.63;;
40707;SDS011;26392;42.696;23.350;2022-07-29T13:26:50;6.72;;;4.55;;
40707;SDS011;26392;42.696;23.350;2022-07-29T13:29:16;6.45;;;4.97;;
40707;SDS011;26392;42.696;23.350;2022-07-29T13:31:43;9.02;;;4.60;;
40707;SDS011;26392;42.696;23.350;2022-07-29T13:34:08;5.28;;;4.45;;
40707;SDS011;26392;42.696;23.350;2022-07-29T13:36:34;5.97;;;4.22;;
40707;SDS011;26392;42.696;23.350;2022-07-29T13:38:59;4.75;;;3.83;;
40707;SDS011;26392;42.696;23.350;2022-07-29T13:41:27;8.15;;;4.43;;
40707;SDS011;26392;42.696;23.350;2022-07-29T13:43:52;5.78;;;4.18;;
40707;SDS011;26392;42.696;23.350;2022-07-29T13:46:18;5.90;;;4.25;;
40707;SDS011;26392;42.696;23.350;2022-07-29T13:48:43;6.55;;;4.70;;
40707;SDS011;26392;42.696;23.350;2022-07-29T13:51:09;6.22;;;4.55;;
40707;SDS011;26392;42.696;23.350;2022-07-29T13:53:34;6.60;;;4.30;;
40707;SDS011;26392;42.696;23.350;2022-07-29T13:56:00;4.95;;;3.70;;
40707;SDS011;26392;42.696;23.350;2022-07-29T13:58:25;5.50;;;4.40;;
40707;SDS011;26392;42.696;23.350;2022-07-29T14:00:51;5.40;;;3.90;;
40707;SDS011;26392;42.696;23.350;2022-07-29T14:03:16;5.60;;;4.28;;
40707;SDS011;26392;42.696;23.350;2022-07-29T14:05:42;6.50;;;4.28;;
40707;SDS011;26392;42.696;23.350;2022-07-29T14:08:07;5.85;;;4.50;;
40707;SDS011;26392;42.696;23.350;2022-07-29T14:10:33;7.00;;;3.90;;
40707;SDS011;26392;42.696;23.350;2022-07-29T14:12:58;8.88;;;4.15;;
40707;SDS011;26392;42.696;23.350;2022-07-29T14:15:23;8.90;;;4.43;;
40707;SDS011;26392;42.696;23.350;2022-07-29T14:17:49;8.18;;;4.55;;
40707;SDS011;26392;42.696;23.350;2022-07-29T14:20:15;4.88;;;4.38;;
40707;SDS011;26392;42.696;23.350;2022-07-29T14:22:40;9.45;;;4.10;;
40707;SDS011;26392;42.696;23.350;2022-07-29T14:25:07;5.38;;;4.13;;
40707;SDS011;26392;42.696;23.350;2022-07-29T14:27:33;7.07;;;4.45;;
40707;SDS011;26392;42.696;23.350;2022-07-29T14:29:59;5.97;;;4.78;;
40707;SDS011;26392;42.696;23.350;2022-07-29T14:32:24;4.95;;;3.80;;
40707;SDS011;26392;42.696;23.350;2022-07-29T14:34:49;9.38;;;5.45;;
40707;SDS011;26392;42.696;23.350;2022-07-29T14:37:15;6.80;;;4.65;;
40707;SDS011;26392;42.696;23.350;2022-07-29T14:39:40;5.40;;;3.97;;
40707;SDS011;26392;42.696;23.350;2022-07-29T14:42:06;4.68;;;4.18;;
40707;SDS011;26392;42.696;23.350;2022-07-29T14:44:32;4.88;;;3.95;;
40707;SDS011;26392;42.696;23.350;2022-07-29T14:47:16;6.32;;;4.82;;
40707;SDS011;26392;42.696;23.350;2022-07-29T14:49:42;4.85;;;3.92;;
40707;SDS011;26392;42.696;23.350;2022-07-29T14:52:07;7.68;;;4.85;;
40707;SDS011;26392;42.696;23.350;2022-07-29T14:54:32;4.97;;;4.47;;
40707;SDS011;26392;42.696;23.350;2022-07-29T14:56:58;6.55;;;4.15;;
40707;SDS011;26392;42.696;23.350;2022-07-29T14:59:24;6.45;;;4.70;;
40707;SDS011;26392;42.696;23.350;2022-07-29T15:01:49;6.18;;;4.45;;
40707;SDS011;26392;42.696;23.350;2022-07-29T15:04:15;6.93;;;4.70;;
40707;SDS011;26392;42.696;23.350;2022-07-29T15:06:40;6.38;;;4.53;;
40707;SDS011;26392;42.696;23.350;2022-07-29T15:09:06;8.52;;;4.78;;
40707;SDS011;26392;42.696;23.350;2022-07-29T15:11:31;6.53;;;4.75;;
40707;SDS011;26392;42.696;23.350;2022-07-29T15:13:57;7.53;;;5.13;;
40707;SDS011;26392;42.696;23.350;2022-07-29T15:16:22;6.68;;;4.80;;
40707;SDS011;26392;42.696;23.350;2022-07-29T15:18:48;7.05;;;4.82;;
40707;SDS011;26392;42.696;23.350;2022-07-29T15:21:14;6.53;;;4.85;;
40707;SDS011;26392;42.696;23.350;2022-07-29T15:23:40;4.90;;;4.32;;